Aérodrome :
LOGIN :

S'inscrire | Disclaimer

   EN    FR    IT 

 










Légende :    VFR   VFR Marginal   IFR   IFR Intensif   IFR Très Intensif
Visi : 
Plafond : 
>= 8 km
>= 3000ft
5 à 8 km
1000 à 3000 ft
1500m à 5 km
500 à 1000 ft
800 à 1500m
200 à 500 ft
< 800m
< 200 ft
Symboles :   Orages  Brouillard  Fortes neiges  Fortes précipitations  Vent > 20 kt
SIGMETs :   Divers  Orages  Givrage  Turbulence  Onde Orograph.  Cendres Volcan.






- Altitude de l'aérodrome : 37 ft


EHVL - Vlieland Heliport

DERNIER METAR :
  • 290806Z AUTO 07009KT 030V090 9999 FEW016 BKN330 13/08 Q1031 BLU

METARs EXPIRÉS :
  • 290755Z AUTO 08008KT 9999 SCT016 OVC330 14/09 Q1031 WHT
  • 290751Z AUTO 09009KT 9999 BKN016 OVC330 13/09 Q1031 WHT
  • 290734Z AUTO 08010KT 9999 SCT016 OVC320 13/08 Q1031 WHT
  • 290725Z AUTO 09009KT 050V110 9999 FEW016 OVC340 13/09 Q1031 BLU
  • 290715Z AUTO 08009KT 040V110 9999 FEW016 SCT350 13/08 Q1031 BLU
  • 290711Z AUTO 07009KT 040V100 9999 SCT016 SCT340 13/09 Q1031 WHT
  • 290655Z AUTO 08008KT 9999 SCT016 SCT350 13/09 Q1031 WHT
  • 290625Z AUTO 09008KT 9999 NCD 13/08 Q1031 BLU
  • 290555Z AUTO 09008KT 9999 NCD 12/08 Q1031 BLU
  • 290525Z AUTO 07007KT 030V090 9999 FEW018 12/08 Q1031 BLU

Prévision TAF périmée.



MET'MAP, la Météo Aéronautique d'un coup d'oeil ! - Copyright ORBIFLY Décembre 2007 - Disclaimer

ORBIFLY MET'MAP TEAM :

Programmation & Développement : Alexandra Zaïnal
Sur une idée originale de : Baudouin d'Aumeries
Assistance à la programmation : Marc-Olivier Méhu
Soutien technique & logistique : Manuel Goepfert

Contact : metmap@orbifly.com




SOURCES & CREDITS :

   NOAA